Denver, Colorado
Traffic Map
Current Weather Conditions
Denver, Colorado
Broken Clouds
Broken Clouds
34°
Feels Like: 26°
Wind Chill: 26° Ceiling: 20000
Heat Index: 34° Visibility: 10mi
Dew Point: 28° Wind: 12mph
Humidity: 78% Direction: 130° (SE)
Pressure: 30.1in Gusts: 0mph
Raw Report DataKBKF 100058Z 13010KT 10SM SCT090 BKN200 01/M02 A3010 RMK AO2A SLP235 T00131021
Traffic Incident Summary
Active as of:
Severity:
Category:
InformationThere was an issue retrieving the traffic information for this location. Please try a different location or try again shortly.
Advertisements
Track Severe Weather on mobile